createdAt,value
2023-01-07T00:02:02.343Z,99776.77
2023-01-07T00:04:35.320Z,99778.36
2023-01-07T00:07:09.932Z,99779.23
2023-01-07T00:09:43.120Z,99776.77
2023-01-07T00:12:16.166Z,99782.16
2023-01-07T00:14:49.270Z,99780.14
2023-01-07T00:17:22.420Z,99782.61
2023-01-07T00:19:55.518Z,99788.02
2023-01-07T00:22:28.640Z,99783.52
2023-01-07T00:25:01.574Z,99781.75
2023-01-07T00:27:34.790Z,99781.75
2023-01-07T00:30:10.414Z,99783.52
2023-01-07T00:32:56.998Z,99783.52
2023-01-07T00:35:30.045Z,99773.64
2023-01-07T00:38:03.417Z,99780.37
2023-01-07T00:40:36.457Z,99769.61
2023-01-07T00:43:09.716Z,99777.69
2023-01-07T00:45:42.791Z,99776.56
2023-01-07T00:48:17.723Z,99776.34
2023-01-07T00:50:52.353Z,99779.73
2023-01-07T00:53:26.024Z,99782.87
2023-01-07T00:55:59.248Z,99790.28
2023-01-07T00:58:32.291Z,99792.53
2023-01-07T01:01:05.756Z,99789.36
2023-01-07T01:03:40.267Z,99792.30
2023-01-07T01:06:16.215Z,99788.47
2023-01-07T01:08:50.145Z,99796.78
2023-01-07T01:11:23.340Z,99796.11
2023-01-07T01:13:57.110Z,99790.72
2023-01-07T01:16:30.327Z,99791.84
2023-01-07T01:19:03.383Z,99790.69
2023-01-07T01:21:36.626Z,99789.59
2023-01-07T01:24:10.447Z,99788.45
2023-01-07T01:26:43.601Z,99792.52
2023-01-07T01:29:16.716Z,99793.86
2023-01-07T01:31:50.323Z,99802.39
2023-01-07T01:34:23.624Z,99798.59
2023-01-07T01:36:56.764Z,99795.66
2023-01-07T01:39:29.909Z,99801.50
2023-01-07T01:42:03.071Z,99809.59
2023-01-07T01:44:43.535Z,99812.30
2023-01-07T01:47:22.375Z,99817.69
2023-01-07T01:49:59.891Z,99823.11
2023-01-07T01:52:37.827Z,99835.69
2023-01-07T01:55:13.503Z,99837.24
2023-01-07T01:57:48.456Z,99836.58
2023-01-07T02:00:22.175Z,99838.38
2023-01-07T02:02:58.736Z,99848.26
2023-01-07T02:05:35.404Z,99852.31
2023-01-07T02:08:08.902Z,99854.98
2023-01-07T02:10:42.322Z,99862.61
2023-01-07T02:13:26.709Z,99861.51
2023-01-07T02:16:02.986Z,99862.84
2023-01-07T02:18:44.106Z,99873.38
2023-01-07T02:21:35.584Z,99870.69
2023-01-07T02:24:51.097Z,99872.49
2023-01-07T02:27:52.003Z,99879.68
2023-01-07T02:30:54.391Z,99884.14
2023-01-07T02:33:54.054Z,99885.95
2023-01-07T02:36:38.961Z,99885.73
2023-01-07T02:39:34.680Z,99883.03
2023-01-07T02:42:11.339Z,99889.08
2023-01-07T02:44:47.694Z,99887.28
2023-01-07T02:47:20.776Z,99899.84
2023-01-07T02:49:54.644Z,99900.54
2023-01-07T02:52:30.039Z,99894.46
2023-01-07T02:55:06.144Z,99904.34
2023-01-07T02:58:06.825Z,99905.92
2023-01-07T03:00:59.714Z,99914.44
2023-01-07T03:03:41.995Z,99918.72
2023-01-07T03:06:24.089Z,99921.84
2023-01-07T03:09:04.406Z,99931.28
2023-01-07T03:11:41.171Z,99929.96
2023-01-07T03:14:18.146Z,99928.64
2023-01-07T03:16:55.547Z,99937.64
2023-01-07T03:19:31.489Z,99941.03
2023-01-07T03:22:07.026Z,99943.46
2023-01-07T03:24:42.049Z,99948.63
2023-01-07T03:27:19.828Z,99953.38
2023-01-07T03:29:54.603Z,99948.88
2023-01-07T03:32:30.335Z,99953.82
2023-01-07T03:35:03.635Z,99945.05
2023-01-07T03:37:37.869Z,99951.09
2023-01-07T03:40:13.608Z,99955.16
2023-01-07T03:42:49.163Z,99954.93
2023-01-07T03:45:25.685Z,99959.65
2023-01-07T03:48:00.876Z,99956.26
2023-01-07T03:50:38.590Z,99958.32
2023-01-07T03:53:12.028Z,99956.95
2023-01-07T03:55:48.190Z,99952.45
2023-01-07T03:58:21.329Z,99960.53
2023-01-07T04:00:58.050Z,99962.11
2023-01-07T04:03:31.254Z,99965.02
2023-01-07T04:06:04.700Z,99965.47
2023-01-07T04:08:38.074Z,99972.17
2023-01-07T04:11:11.283Z,99969.25
2023-01-07T04:13:44.509Z,99968.11
2023-01-07T04:16:18.037Z,99967.66
2023-01-07T04:18:51.635Z,99971.23
2023-01-07T04:21:24.630Z,99975.95
2023-01-07T04:23:58.189Z,99973.69
2023-01-07T04:26:33.918Z,99983.34
2023-01-07T04:29:07.107Z,99975.67
2023-01-07T04:31:40.709Z,99979.73
2023-01-07T04:34:14.733Z,99978.14
2023-01-07T04:36:48.247Z,99983.78
2023-01-07T04:39:21.742Z,99979.06
2023-01-07T04:41:55.463Z,99980.61
2023-01-07T04:44:28.988Z,99981.53
2023-01-07T04:47:02.791Z,99979.73
2023-01-07T04:49:36.495Z,99986.91
2023-01-07T04:52:10.139Z,99991.84
2023-01-07T04:54:43.993Z,99991.84
2023-01-07T04:57:17.677Z,100002.61
2023-01-07T04:59:51.368Z,99990.04
2023-01-07T05:02:24.744Z,99989.59
2023-01-07T05:04:58.983Z,100000.35
2023-01-07T05:07:33.978Z,99999.47
2023-01-07T05:10:10.434Z,99999.23
2023-01-07T05:12:44.531Z,100005.72
2023-01-07T05:15:18.682Z,100011.09
2023-01-07T05:17:52.343Z,100015.14
2023-01-07T05:20:25.879Z,100018.94
2023-01-07T05:22:59.360Z,100026.34
2023-01-07T05:25:32.984Z,100027.27
2023-01-07T05:28:10.549Z,100033.97
2023-01-07T05:30:44.594Z,100038.02
2023-01-07T05:33:18.316Z,100040.70
2023-01-07T05:35:51.708Z,100044.91
2023-01-07T05:38:26.558Z,100051.44
2023-01-07T05:41:00.430Z,100048.05
2023-01-07T05:43:34.612Z,100054.56
2023-01-07T05:46:08.773Z,100060.64
2023-01-07T05:48:42.162Z,100062.85
2023-01-07T05:51:15.784Z,100061.30
2023-01-07T05:53:49.281Z,100066.90
2023-01-07T05:56:23.070Z,100067.79
2023-01-07T05:58:56.346Z,100076.34
2023-01-07T06:01:29.839Z,100074.33
2023-01-07T06:04:03.461Z,100082.00
2023-01-07T06:06:36.805Z,100073.67
2023-01-07T06:09:10.422Z,100083.77
2023-01-07T06:11:43.757Z,100087.39
2023-01-07T06:14:17.275Z,100089.20
2023-01-07T06:16:50.709Z,100099.53
2023-01-07T06:19:24.175Z,100100.69
2023-01-07T06:21:57.550Z,100108.31
2023-01-07T06:24:31.175Z,100112.59
2023-01-07T06:27:14.773Z,100120.69
2023-01-07T06:29:53.096Z,100118.70
2023-01-07T06:32:27.470Z,100120.03
2023-01-07T06:35:00.959Z,100129.33
2023-01-07T06:37:34.266Z,100130.50
2023-01-07T06:40:09.517Z,100126.62
2023-01-07T06:42:43.878Z,100126.73
2023-01-07T06:45:17.470Z,100130.94
2023-01-07T06:47:51.006Z,100123.97
2023-01-07T06:50:25.432Z,100127.06
2023-01-07T06:52:59.667Z,100133.16
2023-01-07T06:55:33.235Z,100122.92
2023-01-07T06:58:06.585Z,100123.94
2023-01-07T07:00:40.029Z,100134.30
2023-01-07T07:03:13.471Z,100138.85
2023-01-07T07:05:47.754Z,100129.75
2023-01-07T07:08:22.346Z,100126.16
2023-01-07T07:10:56.810Z,100129.67
2023-01-07T07:13:30.317Z,100126.36
2023-01-07T07:16:04.076Z,100132.23
2023-01-07T07:18:39.357Z,100135.03
2023-01-07T07:21:12.929Z,100129.80
2023-01-07T07:23:46.682Z,100130.70
2023-01-07T07:26:20.175Z,100136.41
2023-01-07T07:28:53.414Z,100132.89
2023-01-07T07:31:26.967Z,100142.67
2023-01-07T07:34:00.597Z,100143.88
2023-01-07T07:36:33.938Z,100125.67
2023-01-07T07:39:07.874Z,100142.31
2023-01-07T07:41:41.585Z,100144.00
2023-01-07T07:44:15.695Z,100150.34
2023-01-07T07:46:49.062Z,100155.35
2023-01-07T07:49:22.486Z,100161.99
2023-01-07T07:51:55.860Z,100163.32
2023-01-07T07:54:29.608Z,100172.55
2023-01-07T07:57:04.091Z,100174.25
2023-01-07T07:59:37.558Z,100168.39
2023-01-07T08:02:14.285Z,100171.25
2023-01-07T08:04:47.448Z,100174.98
2023-01-07T08:07:32.242Z,100170.66
2023-01-07T08:09:55.867Z,100177.66
2023-01-07T08:12:28.955Z,100173.52
2023-01-07T08:15:02.046Z,100172.72
2023-01-07T08:17:36.384Z,100168.86
2023-01-07T08:20:11.835Z,100175.48
2023-01-07T08:22:44.981Z,100172.31
2023-01-07T08:25:18.332Z,100171.45
2023-01-07T08:27:51.495Z,100171.98
2023-01-07T08:30:24.731Z,100176.19
2023-01-07T08:32:58.641Z,100170.67
2023-01-07T08:35:31.771Z,100175.52
2023-01-07T08:38:07.195Z,100170.92
2023-01-07T08:40:41.105Z,100171.70
2023-01-07T08:43:14.180Z,100167.09
2023-01-07T08:45:52.252Z,100164.95
2023-01-07T08:48:25.652Z,100167.50
2023-01-07T08:50:58.897Z,100170.17
2023-01-07T08:53:32.728Z,100176.41
2023-01-07T08:56:06.577Z,100179.97
2023-01-07T08:58:39.543Z,100186.65
2023-01-07T09:01:13.373Z,100191.98
2023-01-07T09:03:46.807Z,100191.28
2023-01-07T09:06:19.927Z,100188.25
2023-01-07T09:08:53.203Z,100193.45
2023-01-07T09:11:26.465Z,100196.89
2023-01-07T09:13:59.686Z,100196.03
2023-01-07T09:16:33.059Z,100196.64
2023-01-07T09:19:06.290Z,100188.20
2023-01-07T09:21:39.522Z,100196.31
2023-01-07T09:24:12.866Z,100193.62
2023-01-07T09:26:46.367Z,100192.30
2023-01-07T09:29:20.595Z,100195.38
2023-01-07T09:31:53.819Z,100194.08
2023-01-07T09:34:27.197Z,100193.22
2023-01-07T09:37:00.237Z,100199.98
2023-01-07T09:39:33.519Z,100209.09
2023-01-07T09:42:09.943Z,100207.61
2023-01-07T09:44:51.696Z,100209.91
2023-01-07T09:47:28.007Z,100212.45
2023-01-07T09:50:04.371Z,100197.69
2023-01-07T09:52:40.385Z,100204.99
2023-01-07T09:55:18.381Z,100207.17
2023-01-07T09:57:52.778Z,100201.28
2023-01-07T10:00:27.532Z,100202.02
2023-01-07T10:03:21.422Z,100206.86
2023-01-07T10:06:00.748Z,100210.09
2023-01-07T10:08:38.545Z,100216.09
2023-01-07T10:11:12.045Z,100212.21
2023-01-07T10:13:55.721Z,100217.88
2023-01-07T10:16:33.722Z,100212.08
2023-01-07T10:19:10.941Z,100199.44
2023-01-07T10:21:46.483Z,100201.03
2023-01-07T10:24:22.762Z,100198.23
2023-01-07T10:26:58.364Z,100208.97
2023-01-07T10:29:35.684Z,100203.20
2023-01-07T10:32:12.731Z,100202.55
2023-01-07T10:34:49.050Z,100202.22
2023-01-07T10:37:26.110Z,100203.41
2023-01-07T10:40:04.283Z,100206.95
2023-01-07T10:42:40.640Z,100207.80
2023-01-07T10:45:47.522Z,100200.50
2023-01-07T10:48:31.552Z,100200.19
2023-01-07T10:51:17.401Z,100206.63
2023-01-07T10:53:57.419Z,100204.49
2023-01-07T10:56:37.061Z,100203.42
2023-01-07T10:59:07.223Z,100206.75
2023-01-07T11:01:42.737Z,100214.09
2023-01-07T11:04:18.058Z,100213.51
2023-01-07T11:06:54.719Z,100218.52
2023-01-07T11:09:30.932Z,100226.11
2023-01-07T11:12:08.291Z,100226.16
2023-01-07T11:14:43.632Z,100225.59
2023-01-07T11:17:21.010Z,100231.56
2023-01-07T11:19:54.310Z,100227.72
2023-01-07T11:22:36.311Z,100226.13
2023-01-07T11:25:30.520Z,100226.17
2023-01-07T11:28:05.409Z,100230.44
2023-01-07T11:30:39.127Z,100233.72
2023-01-07T11:33:20.354Z,100233.55
2023-01-07T11:35:57.755Z,100237.45
2023-01-07T11:38:33.319Z,100232.45
2023-01-07T11:41:09.033Z,100233.33
2023-01-07T11:43:45.810Z,100237.07
2023-01-07T11:46:22.461Z,100246.06
2023-01-07T11:48:58.265Z,100256.55
2023-01-07T11:51:40.716Z,100245.23
2023-01-07T11:57:16.407Z,100238.59
2023-01-07T11:59:48.735Z,100243.13
2023-01-07T12:02:29.975Z,100241.44
2023-01-07T12:05:22.057Z,100250.79
2023-01-07T12:07:56.996Z,100250.71
2023-01-07T12:10:35.567Z,100256.06
2023-01-07T12:13:20.638Z,100258.89
2023-01-07T12:15:57.695Z,100257.86
2023-01-07T12:21:51.060Z,100249.45
2023-01-07T12:24:59.818Z,100261.24
2023-01-07T12:27:38.721Z,100261.14
2023-01-07T12:30:51.691Z,100270.13
2023-01-07T12:33:32.394Z,100270.20
2023-01-07T12:36:09.544Z,100276.38
2023-01-07T12:38:45.866Z,100285.72
2023-01-07T12:41:22.513Z,100285.65
2023-01-07T12:44:00.685Z,100272.44
2023-01-07T12:46:39.418Z,100280.47
2023-01-07T12:49:16.722Z,100273.75
2023-01-07T12:51:52.739Z,100280.04
2023-01-07T12:54:29.607Z,100282.47
2023-01-07T12:57:07.166Z,100286.56
2023-01-07T12:59:46.362Z,100288.05
2023-01-07T13:02:25.327Z,100299.19
2023-01-07T13:05:04.735Z,100297.99
2023-01-07T13:07:42.116Z,100296.78
2023-01-07T13:10:19.603Z,100301.66
2023-01-07T13:12:55.996Z,100306.41
2023-01-07T13:15:33.218Z,100304.66
2023-01-07T13:18:13.522Z,100308.86
2023-01-07T13:20:56.445Z,100315.90
2023-01-07T13:23:33.992Z,100310.67
2023-01-07T13:26:14.660Z,100319.05
2023-01-07T13:28:56.010Z,100315.86
2023-01-07T13:31:37.058Z,100317.56
2023-01-07T13:34:17.681Z,100329.60
2023-01-07T13:36:54.336Z,100327.60
2023-01-07T13:39:36.147Z,100332.86
2023-01-07T13:42:18.259Z,100325.47
2023-01-07T13:45:15.738Z,100331.05
2023-01-07T13:47:51.972Z,100328.53
2023-01-07T13:50:29.713Z,100336.85
2023-01-07T13:53:05.517Z,100340.61
2023-01-07T13:55:43.171Z,100343.23
2023-01-07T13:58:45.638Z,100341.30
2023-01-07T14:01:19.601Z,100332.98
2023-01-07T14:03:53.863Z,100339.70
2023-01-07T14:06:45.636Z,100330.66
2023-01-07T14:09:35.341Z,100335.41
2023-01-07T14:12:51.714Z,100321.97
2023-01-07T14:15:48.080Z,100334.91
2023-01-07T14:18:36.500Z,100334.98
2023-01-07T14:21:26.286Z,100352.49
2023-01-07T14:24:26.421Z,100355.94
2023-01-07T14:27:03.113Z,100349.42
2023-01-07T14:29:43.115Z,100356.08
2023-01-07T14:32:32.644Z,100363.55
2023-01-07T14:35:08.415Z,100361.73
2023-01-07T14:37:45.443Z,100361.73
2023-01-07T14:41:00.642Z,100360.14
2023-01-07T14:43:53.047Z,100359.08
2023-01-07T14:46:50.891Z,100359.08
2023-01-07T14:50:00.853Z,100355.48
2023-01-07T14:53:20.227Z,100357.39
2023-01-07T14:59:22.264Z,100357.66
2023-01-07T15:02:08.452Z,100361.30
2023-01-07T15:05:17.337Z,100368.44
2023-01-07T15:07:55.447Z,100368.98
2023-01-07T15:10:49.850Z,100370.84
2023-01-07T15:13:41.606Z,100370.39
2023-01-07T15:16:16.164Z,100372.20
2023-01-07T15:18:52.462Z,100374.75
2023-01-07T15:21:30.698Z,100376.79
2023-01-07T15:24:08.282Z,100366.44
2023-01-07T15:26:45.127Z,100379.25
2023-01-07T15:29:19.997Z,100379.87
2023-01-07T15:31:56.309Z,100372.67
2023-01-07T15:34:30.727Z,100369.53
2023-01-07T15:37:06.620Z,100367.96
2023-01-07T15:39:43.438Z,100363.25
2023-01-07T15:42:18.142Z,100361.25
2023-01-07T15:44:53.371Z,100365.60
2023-01-07T15:50:30.730Z,100361.44
2023-01-07T15:53:06.740Z,100358.16
2023-01-07T15:55:42.957Z,100359.36
2023-01-07T15:58:19.669Z,100347.27
2023-01-07T16:00:55.085Z,100364.42
2023-01-07T16:03:29.436Z,100366.49
2023-01-07T16:06:03.506Z,100366.49
2023-01-07T16:08:37.345Z,100366.49
2023-01-07T16:11:13.798Z,100366.23
2023-01-07T16:13:57.252Z,100369.59
2023-01-07T16:16:34.322Z,100364.80
2023-01-07T16:19:07.756Z,100372.47
2023-01-07T16:21:45.626Z,100372.24
2023-01-07T16:24:19.295Z,100374.95
2023-01-07T16:26:55.342Z,100367.58
2023-01-07T16:29:31.668Z,100375.30
2023-01-07T16:32:07.020Z,100372.59
2023-01-07T16:34:56.160Z,100367.17
2023-01-07T16:37:31.018Z,100371.72
2023-01-07T16:40:05.793Z,100369.02
2023-01-07T16:42:41.398Z,100373.53
2023-01-07T16:45:28.561Z,100364.00
2023-01-07T16:48:33.914Z,100364.42
2023-01-07T16:51:08.954Z,100365.81
2023-01-07T16:53:42.674Z,100377.12
2023-01-07T16:56:19.784Z,100378.30
2023-01-07T16:58:55.799Z,100377.84
2023-01-07T17:01:35.411Z,100387.31
2023-01-07T17:04:13.011Z,100387.31
2023-01-07T17:06:46.763Z,100391.19
2023-01-07T17:09:25.987Z,100393.44
2023-01-07T17:11:59.580Z,100396.84
2023-01-07T17:14:52.537Z,100399.80
2023-01-07T17:17:32.848Z,100398.20
2023-01-07T17:20:22.820Z,100393.90
2023-01-07T17:22:56.706Z,100393.69
2023-01-07T17:25:32.085Z,100391.88
2023-01-07T17:28:10.385Z,100391.41
2023-01-07T17:30:44.516Z,100386.23
2023-01-07T17:33:18.763Z,100389.64
2023-01-07T17:35:54.521Z,100397.09
2023-01-07T17:38:28.889Z,100387.83
2023-01-07T17:41:03.729Z,100382.85
2023-01-07T17:43:37.833Z,100379.45
2023-01-07T17:46:14.089Z,100380.83
2023-01-07T17:48:47.815Z,100376.33
2023-01-07T17:51:22.674Z,100378.13
2023-01-07T17:53:59.185Z,100384.67
2023-01-07T17:56:32.894Z,100389.00
2023-01-07T17:59:11.524Z,100390.18
2023-01-07T18:01:45.496Z,100385.89
2023-01-07T18:04:22.475Z,100396.75
2023-01-07T18:06:55.886Z,100392.24
2023-01-07T18:09:29.626Z,100398.12
2023-01-07T18:12:21.090Z,100398.38
2023-01-07T18:14:55.394Z,100403.34
2023-01-07T18:17:29.911Z,100400.44
2023-01-07T18:20:03.527Z,100398.12
2023-01-07T18:22:37.630Z,100396.33
2023-01-07T18:25:17.211Z,100386.81
2023-01-07T18:27:53.670Z,100380.95
2023-01-07T18:30:27.979Z,100387.91
2023-01-07T18:33:01.756Z,100382.94
2023-01-07T18:35:35.799Z,100385.42
2023-01-07T18:38:14.609Z,100384.53
2023-01-07T18:40:49.246Z,100385.42
2023-01-07T18:43:23.197Z,100379.35
2023-01-07T18:46:00.496Z,100378.68
2023-01-07T18:48:35.172Z,100376.87
2023-01-07T18:51:13.735Z,100377.80
2023-01-07T18:53:48.328Z,100380.27
2023-01-07T18:56:22.225Z,100376.44
2023-01-07T18:58:57.124Z,100383.22
2023-01-07T19:01:30.952Z,100379.63
2023-01-07T19:04:06.860Z,100382.80
2023-01-07T19:06:40.789Z,100377.83
2023-01-07T19:09:14.484Z,100385.70
2023-01-07T19:11:48.282Z,100391.32
2023-01-07T19:14:22.818Z,100390.18
2023-01-07T19:16:57.081Z,100391.03
2023-01-07T19:19:39.989Z,100390.56
2023-01-07T19:22:06.354Z,100397.05
2023-01-07T19:24:39.765Z,100398.83
2023-01-07T19:27:13.861Z,100389.77
2023-01-07T19:29:47.347Z,100394.52
2023-01-07T19:32:21.059Z,100394.27
2023-01-07T19:34:54.652Z,100394.73
2023-01-07T19:37:28.206Z,100394.10
2023-01-07T19:40:01.684Z,100391.88
2023-01-07T19:42:35.921Z,100388.50
2023-01-07T19:45:11.803Z,100381.76
2023-01-07T19:47:47.276Z,100388.33
2023-01-07T19:50:20.980Z,100384.75
2023-01-07T19:52:54.275Z,100397.00
2023-01-07T19:55:27.887Z,100397.67
2023-01-07T19:58:01.376Z,100402.24
2023-01-07T20:00:35.213Z,100399.08
2023-01-07T20:03:08.997Z,100394.36
2023-01-07T20:05:43.080Z,100393.25
2023-01-07T20:08:17.035Z,100400.97
2023-01-07T20:10:59.610Z,100406.18
2023-01-07T20:13:34.963Z,100408.41
2023-01-07T20:16:12.480Z,100405.05
2023-01-07T20:18:48.346Z,100408.88
2023-01-07T20:21:24.558Z,100412.95
2023-01-07T20:24:01.444Z,100408.20
2023-01-07T20:26:38.336Z,100407.28
2023-01-07T20:29:11.913Z,100406.80
2023-01-07T20:31:45.896Z,100419.41
2023-01-07T20:34:19.582Z,100421.88
2023-01-07T20:36:52.925Z,100415.77
2023-01-07T20:39:29.919Z,100413.97
2023-01-07T20:42:05.592Z,100420.28
2023-01-07T20:44:39.907Z,100419.83
2023-01-07T20:47:13.468Z,100407.16
2023-01-07T20:49:47.521Z,100412.12
2023-01-07T20:52:21.065Z,100414.39
2023-01-07T20:54:54.283Z,100414.85
2023-01-07T20:57:28.568Z,100408.99
2023-01-07T21:00:02.483Z,100415.34
2023-01-07T21:02:39.701Z,100411.72
2023-01-07T21:05:13.793Z,100408.12
2023-01-07T21:07:47.072Z,100412.64
2023-01-07T21:10:21.647Z,100410.61
2023-01-07T21:12:54.713Z,100411.53
2023-01-07T21:15:27.939Z,100408.59
2023-01-07T21:18:01.007Z,100404.48
2023-01-07T21:20:34.262Z,100401.26
2023-01-07T21:23:07.844Z,100398.06
2023-01-07T21:25:44.799Z,100396.89
2023-01-07T21:28:18.510Z,100397.09
2023-01-07T21:30:51.821Z,100395.70
2023-01-07T21:33:24.925Z,100399.95
2023-01-07T21:35:58.036Z,100387.48
2023-01-07T21:38:31.222Z,100386.04
2023-01-07T21:41:09.109Z,100380.55
2023-01-07T21:43:43.206Z,100384.59
2023-01-07T21:46:17.061Z,100384.12
2023-01-07T21:48:50.472Z,100384.33
2023-01-07T21:51:25.786Z,100381.82
2023-01-07T21:53:59.671Z,100389.50
2023-01-07T21:56:33.211Z,100389.91
2023-01-07T22:01:49.389Z,100381.61
2023-01-07T22:04:22.592Z,100380.27
2023-01-07T22:06:57.031Z,100375.68
2023-01-07T22:09:30.348Z,100370.58
2023-01-07T22:12:03.859Z,100370.20
2023-01-07T22:14:37.378Z,100364.41
2023-01-07T22:17:13.521Z,100368.43
2023-01-07T22:19:46.738Z,100363.38
2023-01-07T22:22:21.044Z,100368.77
2023-01-07T22:24:54.554Z,100364.70
2023-01-07T22:27:27.682Z,100361.05
2023-01-07T22:30:01.908Z,100359.64
2023-01-07T22:32:34.939Z,100367.97
2023-01-07T22:35:09.846Z,100354.94
2023-01-07T22:37:43.403Z,100348.94
2023-01-07T22:40:17.179Z,100355.77
2023-01-07T22:42:53.587Z,100347.17
2023-01-07T22:45:29.665Z,100355.08
2023-01-07T22:48:04.228Z,100354.53
2023-01-07T22:50:38.551Z,100359.33
2023-01-07T22:53:12.969Z,100357.36
2023-01-07T22:55:48.206Z,100362.48
2023-01-07T22:58:21.302Z,100357.39
2023-01-07T23:01:14.209Z,100357.91
2023-01-07T23:03:48.016Z,100358.73
2023-01-07T23:06:21.385Z,100362.73
2023-01-07T23:08:54.606Z,100365.82
2023-01-07T23:11:49.143Z,100361.05
2023-01-07T23:14:23.774Z,100371.44
2023-01-07T23:16:57.535Z,100363.94
2023-01-07T23:19:32.216Z,100374.33
2023-01-07T23:22:05.623Z,100369.25
2023-01-07T23:24:39.315Z,100363.76
2023-01-07T23:27:14.062Z,100362.95
2023-01-07T23:29:47.252Z,100352.84
2023-01-07T23:32:20.392Z,100372.00
2023-01-07T23:34:53.619Z,100371.73
2023-01-07T23:37:26.991Z,100363.73
2023-01-07T23:40:00.148Z,100368.92
2023-01-07T23:42:33.924Z,100368.92
2023-01-07T23:45:08.858Z,100365.00
2023-01-07T23:47:42.157Z,100366.11
2023-01-07T23:50:15.711Z,100369.50
2023-01-07T23:52:48.766Z,100373.61
2023-01-07T23:55:22.153Z,100365.42
2023-01-07T23:57:55.389Z,100368.00
